createdAt,value
2022-09-06T00:02:20.181Z,99.90
2022-09-06T00:04:48.230Z,99.90
2022-09-06T00:07:15.180Z,99.90
2022-09-06T00:09:42.043Z,99.90
2022-09-06T00:12:09.001Z,99.90
2022-09-06T00:14:35.926Z,99.90
2022-09-06T00:17:02.878Z,99.90
2022-09-06T00:19:29.775Z,99.90
2022-09-06T00:21:56.639Z,99.90
2022-09-06T00:24:23.588Z,99.90
2022-09-06T00:26:50.613Z,99.90
2022-09-06T00:29:17.461Z,99.90
2022-09-06T00:31:44.364Z,99.90
2022-09-06T00:34:11.233Z,99.90
2022-09-06T00:36:38.077Z,99.90
2022-09-06T00:39:05.247Z,99.90
2022-09-06T00:41:32.196Z,99.90
2022-09-06T00:43:59.159Z,99.90
2022-09-06T00:46:29.149Z,99.90
2022-09-06T00:49:03.592Z,99.90
2022-09-06T00:51:31.706Z,99.90
2022-09-06T00:53:59.155Z,99.90
2022-09-06T00:56:27.134Z,99.90
2022-09-06T00:58:55.005Z,99.90
2022-09-06T01:01:21.987Z,99.90
2022-09-06T01:03:49.199Z,99.90
2022-09-06T01:06:34.769Z,99.90
2022-09-06T01:09:07.881Z,99.90
2022-09-06T01:12:13.177Z,99.90
2022-09-06T01:14:49.019Z,99.90
2022-09-06T01:17:32.587Z,99.90
2022-09-06T01:20:18.440Z,99.90
2022-09-06T01:23:18.410Z,99.90
2022-09-06T01:26:09.115Z,99.90
2022-09-06T01:28:42.727Z,99.90
2022-09-06T01:31:12.768Z,99.90
2022-09-06T01:33:51.825Z,99.90
2022-09-06T01:36:24.307Z,99.90
2022-09-06T01:38:51.386Z,99.90
2022-09-06T01:41:18.297Z,99.90
2022-09-06T01:43:48.717Z,99.90
2022-09-06T01:46:25.272Z,99.90
2022-09-06T01:48:55.319Z,99.90
2022-09-06T01:51:38.676Z,99.90
2022-09-06T01:54:19.206Z,99.90
2022-09-06T01:57:00.956Z,99.90
2022-09-06T01:59:47.146Z,99.90
2022-09-06T02:02:52.909Z,99.90
2022-09-06T02:05:32.180Z,99.90
2022-09-06T02:08:04.950Z,99.90
2022-09-06T02:10:43.060Z,99.90
2022-09-06T02:13:12.874Z,99.90
2022-09-06T02:15:46.232Z,99.90
2022-09-06T02:18:18.937Z,99.90
2022-09-06T02:20:50.905Z,99.90
2022-09-06T02:23:19.532Z,99.90
2022-09-06T02:26:01.925Z,99.90
2022-09-06T02:28:29.114Z,99.90
2022-09-06T02:30:59.799Z,99.90
2022-09-06T02:33:30.492Z,99.90
2022-09-06T02:36:04.935Z,99.90
2022-09-06T02:38:34.174Z,99.90
2022-09-06T02:41:01.512Z,99.90
2022-09-06T02:43:28.360Z,99.90
2022-09-06T02:45:55.344Z,99.90
2022-09-06T02:48:22.520Z,99.90
2022-09-06T02:50:49.409Z,99.90
2022-09-06T02:53:16.925Z,99.90
2022-09-06T02:55:45.621Z,99.90
2022-09-06T02:58:12.567Z,99.90
2022-09-06T03:00:39.886Z,99.90
2022-09-06T03:03:07.361Z,99.90
2022-09-06T03:05:34.396Z,99.90
2022-09-06T03:08:01.300Z,99.90
2022-09-06T03:10:28.178Z,99.90
2022-09-06T03:12:55.043Z,99.90
2022-09-06T03:15:21.890Z,99.90
2022-09-06T03:17:48.713Z,99.90
2022-09-06T03:20:15.565Z,99.90
2022-09-06T03:22:42.485Z,99.90
2022-09-06T03:25:10.214Z,99.90
2022-09-06T03:27:37.651Z,99.90
2022-09-06T03:30:06.135Z,99.90
2022-09-06T03:32:33.494Z,99.90
2022-09-06T03:35:00.533Z,99.90
2022-09-06T03:37:28.233Z,99.90
2022-09-06T03:39:55.363Z,99.90
2022-09-06T03:42:22.535Z,99.90
2022-09-06T03:44:49.399Z,99.90
2022-09-06T03:47:19.398Z,99.90
2022-09-06T03:49:47.280Z,99.90
2022-09-06T03:52:14.528Z,99.90
2022-09-06T03:54:41.396Z,99.90
2022-09-06T03:57:08.590Z,99.90
2022-09-06T03:59:35.588Z,99.90
2022-09-06T04:02:02.696Z,99.90
2022-09-06T04:04:29.606Z,99.90
2022-09-06T04:06:56.450Z,99.90
2022-09-06T04:09:24.038Z,99.90
2022-09-06T04:11:50.950Z,99.90
2022-09-06T04:14:17.954Z,99.90
2022-09-06T04:16:44.849Z,99.90
2022-09-06T04:19:11.826Z,99.90
2022-09-06T04:21:38.901Z,99.90
2022-09-06T04:24:05.781Z,99.90
2022-09-06T04:26:33.114Z,99.90
2022-09-06T04:29:00.035Z,99.90
2022-09-06T04:31:27.106Z,99.90
2022-09-06T04:33:54.070Z,99.90
2022-09-06T04:36:21.033Z,99.90
2022-09-06T04:38:47.897Z,99.90
2022-09-06T04:41:17.185Z,99.90
2022-09-06T04:43:44.279Z,99.90
2022-09-06T04:46:25.026Z,99.90
2022-09-06T04:48:53.691Z,99.90
2022-09-06T04:51:21.343Z,99.90
2022-09-06T04:53:48.526Z,99.90
2022-09-06T04:56:23.725Z,99.90
2022-09-06T04:58:51.902Z,99.90
2022-09-06T05:01:19.149Z,99.90
2022-09-06T05:03:46.823Z,99.90
2022-09-06T05:06:20.738Z,99.90
2022-09-06T05:08:48.286Z,99.90
2022-09-06T05:11:15.435Z,99.90
2022-09-06T05:13:42.405Z,99.90
2022-09-06T05:16:10.249Z,99.90
2022-09-06T05:18:37.216Z,99.90
2022-09-06T05:21:04.348Z,99.90
2022-09-06T05:23:31.203Z,99.90
2022-09-06T05:25:58.134Z,99.90
2022-09-06T05:28:25.139Z,99.90
2022-09-06T05:30:52.048Z,99.90
2022-09-06T05:33:22.818Z,99.90
2022-09-06T05:35:49.903Z,99.90
2022-09-06T05:38:17.101Z,99.90
2022-09-06T05:40:44.093Z,99.90
2022-09-06T05:43:11.491Z,99.90
2022-09-06T05:45:38.447Z,99.90
2022-09-06T05:48:05.365Z,99.90
2022-09-06T05:50:32.256Z,99.90
2022-09-06T05:52:59.171Z,99.90
2022-09-06T05:55:26.238Z,99.90
2022-09-06T05:57:53.168Z,99.90
2022-09-06T06:00:20.246Z,99.90
2022-09-06T06:02:48.501Z,99.90
2022-09-06T06:05:16.351Z,99.90
2022-09-06T06:07:43.391Z,99.90
2022-09-06T06:10:10.583Z,99.90
2022-09-06T06:12:37.625Z,99.90
2022-09-06T06:15:08.114Z,99.90
2022-09-06T06:17:34.872Z,99.90
2022-09-06T06:20:02.016Z,99.90
2022-09-06T06:22:28.914Z,99.90
2022-09-06T06:24:55.799Z,99.90
2022-09-06T06:27:22.654Z,99.90
2022-09-06T06:29:50.523Z,99.90
2022-09-06T06:32:17.408Z,99.90
2022-09-06T06:34:44.257Z,99.90
2022-09-06T06:37:11.176Z,99.90
2022-09-06T06:39:38.697Z,99.90
2022-09-06T06:42:05.742Z,99.90
2022-09-06T06:44:45.453Z,99.90
2022-09-06T06:47:12.307Z,99.90
2022-09-06T06:49:39.144Z,99.90
2022-09-06T06:52:06.757Z,99.90
2022-09-06T06:54:33.631Z,99.90
2022-09-06T06:57:00.501Z,99.90
2022-09-06T06:59:27.451Z,99.90
2022-09-06T07:01:54.550Z,99.90
2022-09-06T07:04:21.755Z,99.90
2022-09-06T07:12:24.110Z,99.90
2022-09-06T07:14:51.016Z,99.90
2022-09-06T07:17:17.863Z,99.90
2022-09-06T07:22:31.529Z,99.90
2022-09-06T07:24:58.384Z,99.90
2022-09-06T07:30:14.307Z,99.90
2022-09-06T07:32:41.293Z,99.90
2022-09-06T07:35:08.674Z,99.90
2022-09-06T07:37:35.606Z,99.90
2022-09-06T07:40:04.145Z,99.90
2022-09-06T07:42:36.235Z,99.90
2022-09-06T07:45:04.796Z,99.90
2022-09-06T07:53:13.085Z,99.90
2022-09-06T07:55:42.823Z,99.90
2022-09-06T07:58:09.677Z,99.90
2022-09-06T08:00:36.687Z,99.90
2022-09-06T08:03:03.937Z,99.90
2022-09-06T08:11:07.543Z,99.90
2022-09-06T08:13:35.866Z,99.90
2022-09-06T08:16:05.450Z,99.90
2022-09-06T08:18:32.690Z,99.90
2022-09-06T08:21:12.665Z,99.90
2022-09-06T08:23:51.205Z,99.90
2022-09-06T08:26:20.852Z,99.90
2022-09-06T08:28:48.040Z,99.90
2022-09-06T08:31:17.320Z,99.90
2022-09-06T08:33:44.629Z,99.90
2022-09-06T08:36:11.825Z,99.90
2022-09-06T08:38:38.776Z,99.90
2022-09-06T08:41:08.069Z,99.90
2022-09-06T08:43:35.604Z,99.90
2022-09-06T08:46:04.288Z,99.90
2022-09-06T08:48:38.454Z,99.90
2022-09-06T08:51:34.431Z,99.90
2022-09-06T08:54:30.231Z,99.90
2022-09-06T08:57:03.653Z,99.90
2022-09-06T08:59:37.792Z,99.90
2022-09-06T09:02:17.335Z,99.90
2022-09-06T09:04:57.184Z,99.90
2022-09-06T09:07:40.912Z,99.90
2022-09-06T09:10:40.355Z,99.90
2022-09-06T09:13:09.769Z,99.90
2022-09-06T09:15:40.433Z,99.90
2022-09-06T09:18:07.942Z,99.90
2022-09-06T09:20:34.870Z,99.90
2022-09-06T09:23:02.153Z,99.90
2022-09-06T09:25:32.033Z,99.90
2022-09-06T09:28:00.296Z,99.90
2022-09-06T09:33:29.656Z,99.90
2022-09-06T09:35:58.375Z,99.90
2022-09-06T09:38:29.121Z,99.90
2022-09-06T09:40:57.975Z,99.90
2022-09-06T09:43:34.188Z,99.90
2022-09-06T09:46:22.592Z,99.90
2022-09-06T09:49:29.156Z,99.90
2022-09-06T09:52:16.119Z,99.90
2022-09-06T09:54:45.922Z,99.90
2022-09-06T09:57:18.767Z,99.90
2022-09-06T09:59:57.432Z,99.90
2022-09-06T10:02:42.054Z,99.90
2022-09-06T10:05:16.120Z,99.90
2022-09-06T10:07:46.624Z,99.90
2022-09-06T10:10:20.700Z,99.90
2022-09-06T10:12:47.708Z,99.90
2022-09-06T10:15:35.166Z,99.90
2022-09-06T10:18:02.430Z,99.90
2022-09-06T10:20:49.922Z,99.90
2022-09-06T10:26:30.650Z,99.90
2022-09-06T10:29:31.161Z,99.90
2022-09-06T10:32:30.784Z,99.90
2022-09-06T10:35:22.373Z,99.90
2022-09-06T10:38:03.960Z,99.90
2022-09-06T10:40:36.411Z,99.90
2022-09-06T10:43:06.187Z,99.90
2022-09-06T10:45:46.906Z,99.90
2022-09-06T10:48:16.780Z,99.90
2022-09-06T10:50:55.716Z,99.90
2022-09-06T10:53:22.631Z,99.90
2022-09-06T10:56:05.129Z,99.90
2022-09-06T11:01:32.835Z,99.90
2022-09-06T11:04:04.473Z,99.90
2022-09-06T11:06:47.594Z,99.90
2022-09-06T11:09:27.843Z,99.90
2022-09-06T11:12:12.779Z,99.90
2022-09-06T11:14:40.768Z,99.90
2022-09-06T11:17:10.181Z,99.90
2022-09-06T11:20:06.013Z,99.90
2022-09-06T11:22:47.827Z,99.90
2022-09-06T11:25:39.411Z,99.90
2022-09-06T11:28:10.277Z,99.90
2022-09-06T11:30:37.616Z,99.90
2022-09-06T11:33:28.423Z,99.90
2022-09-06T11:36:32.440Z,99.90
2022-09-06T11:39:02.349Z,99.90
2022-09-06T11:41:36.018Z,99.90
2022-09-06T11:44:04.199Z,99.90
2022-09-06T11:46:34.389Z,99.90
2022-09-06T11:49:06.957Z,99.90
2022-09-06T11:51:38.164Z,99.90
2022-09-06T11:54:11.123Z,99.90
2022-09-06T11:56:42.687Z,99.60
2022-09-06T11:59:19.007Z,99.70
2022-09-06T12:02:25.548Z,99.90
2022-09-06T12:05:03.591Z,98.90
2022-09-06T12:07:32.868Z,99.40
2022-09-06T12:10:22.126Z,99.80
2022-09-06T12:12:52.637Z,99.90
2022-09-06T12:15:45.257Z,99.30
2022-09-06T12:18:58.394Z,99.20
2022-09-06T12:22:00.727Z,99.00
2022-09-06T12:24:38.515Z,98.30
2022-09-06T12:27:36.721Z,99.60
2022-09-06T12:30:11.768Z,99.40
2022-09-06T12:32:43.988Z,98.80
2022-09-06T12:38:18.466Z,99.20
2022-09-06T12:40:48.050Z,98.70
2022-09-06T12:43:17.425Z,99.20
2022-09-06T12:45:46.648Z,99.30
2022-09-06T12:48:41.301Z,99.80
2022-09-06T12:51:20.200Z,99.70
2022-09-06T12:53:55.081Z,99.90
2022-09-06T12:56:23.505Z,99.90
2022-09-06T12:58:50.450Z,99.90
2022-09-06T13:01:29.209Z,99.30
2022-09-06T13:04:02.726Z,99.90
2022-09-06T13:06:34.062Z,99.90
2022-09-06T13:09:02.270Z,99.90
2022-09-06T13:11:37.063Z,99.90
2022-09-06T13:14:14.239Z,99.90
2022-09-06T13:16:47.414Z,99.90
2022-09-06T13:19:29.133Z,99.90
2022-09-06T13:21:57.560Z,99.90
2022-09-06T13:24:49.068Z,99.90
2022-09-06T13:27:30.986Z,99.90
2022-09-06T13:30:03.392Z,99.90
2022-09-06T13:32:30.587Z,99.90
2022-09-06T13:34:59.494Z,99.90
2022-09-06T13:37:29.075Z,99.90
2022-09-06T13:39:57.588Z,99.90
2022-09-06T13:42:38.856Z,99.90
2022-09-06T13:45:47.151Z,99.90
2022-09-06T13:48:28.695Z,99.90
2022-09-06T13:51:03.419Z,99.90
2022-09-06T13:53:31.711Z,99.90
2022-09-06T13:55:59.141Z,99.90
2022-09-06T13:58:26.733Z,99.90
2022-09-06T14:00:54.427Z,99.90
2022-09-06T14:03:26.671Z,99.90
2022-09-06T14:05:53.817Z,99.90
2022-09-06T14:08:21.269Z,99.90
2022-09-06T14:10:48.386Z,99.90
2022-09-06T14:13:16.775Z,99.90
2022-09-06T14:15:45.308Z,99.90
2022-09-06T14:18:14.477Z,99.80
2022-09-06T14:20:42.191Z,99.90
2022-09-06T14:23:09.636Z,99.80
2022-09-06T14:25:37.586Z,98.70
2022-09-06T14:28:05.227Z,99.00
2022-09-06T14:30:32.157Z,99.10
2022-09-06T14:32:59.044Z,99.00
2022-09-06T14:35:25.998Z,98.30
2022-09-06T14:37:52.880Z,96.80
2022-09-06T14:40:19.828Z,97.90
2022-09-06T14:42:50.424Z,97.50
2022-09-06T14:45:18.386Z,97.50
2022-09-06T14:47:45.298Z,97.70
2022-09-06T14:50:12.355Z,97.10
2022-09-06T14:52:39.190Z,97.70
2022-09-06T14:55:06.452Z,97.30
2022-09-06T14:57:33.311Z,97.20
2022-09-06T15:00:01.712Z,97.60
2022-09-06T15:02:29.127Z,97.40
2022-09-06T15:04:56.018Z,97.70
2022-09-06T15:07:23.285Z,97.70
2022-09-06T15:09:51.071Z,98.20
2022-09-06T15:12:18.298Z,97.70
2022-09-06T15:14:45.284Z,97.80
2022-09-06T15:17:13.171Z,98.40
2022-09-06T15:19:40.085Z,98.50
2022-09-06T15:22:07.396Z,99.00
2022-09-06T15:24:34.658Z,97.90
2022-09-06T15:27:01.487Z,98.50
2022-09-06T15:29:28.867Z,99.00
2022-09-06T15:31:56.291Z,99.00
2022-09-06T15:34:25.185Z,99.10
2022-09-06T15:36:53.449Z,99.20
2022-09-06T15:39:20.591Z,99.30
2022-09-06T15:41:50.003Z,99.50
2022-09-06T15:44:18.993Z,99.60
2022-09-06T15:46:54.498Z,99.80
2022-09-06T15:49:28.385Z,99.90
2022-09-06T15:51:57.543Z,99.90
2022-09-06T15:54:44.371Z,99.90
2022-09-06T15:57:12.082Z,99.90
2022-09-06T15:59:40.384Z,99.90
2022-09-06T16:02:07.631Z,99.80
2022-09-06T16:04:34.599Z,99.90
2022-09-06T16:07:01.534Z,99.90
2022-09-06T16:09:29.256Z,99.80
2022-09-06T16:11:56.134Z,99.70
2022-09-06T16:14:23.487Z,99.80
2022-09-06T16:16:54.443Z,99.90
2022-09-06T16:19:21.578Z,99.90
2022-09-06T16:21:48.436Z,99.70
2022-09-06T16:24:17.091Z,99.80
2022-09-06T16:26:46.680Z,99.40
2022-09-06T16:29:16.432Z,99.50
2022-09-06T16:31:43.497Z,99.30
2022-09-06T16:34:11.765Z,99.00
2022-09-06T16:36:39.277Z,98.90
2022-09-06T16:39:07.484Z,98.50
2022-09-06T16:41:42.314Z,98.50
2022-09-06T16:44:16.503Z,98.50
2022-09-06T16:46:48.746Z,98.80
2022-09-06T16:49:17.523Z,99.00
2022-09-06T16:51:44.669Z,98.80
2022-09-06T16:54:11.872Z,99.00
2022-09-06T16:56:39.535Z,99.00
2022-09-06T16:59:08.969Z,98.70
2022-09-06T17:01:37.497Z,99.00
2022-09-06T17:04:05.506Z,99.50
2022-09-06T17:06:34.132Z,99.80
2022-09-06T17:09:01.194Z,99.90
2022-09-06T17:11:29.134Z,99.90
2022-09-06T17:13:57.004Z,99.90
2022-09-06T17:16:43.883Z,99.90
2022-09-06T17:19:11.191Z,99.90
2022-09-06T17:21:40.013Z,99.90
2022-09-06T17:24:08.292Z,99.90
2022-09-06T17:26:36.776Z,99.90
2022-09-06T17:29:04.241Z,99.90
2022-09-06T17:31:31.247Z,99.90
2022-09-06T17:33:59.677Z,99.90
2022-09-06T17:36:30.411Z,99.90
2022-09-06T17:39:01.100Z,99.90
2022-09-06T17:41:33.129Z,99.90
2022-09-06T17:44:00.431Z,99.90
2022-09-06T17:46:29.060Z,99.90
2022-09-06T17:48:57.000Z,99.90
2022-09-06T17:51:24.840Z,99.90
2022-09-06T17:53:52.578Z,99.90
2022-09-06T17:56:20.317Z,99.90
2022-09-06T17:59:01.934Z,99.90
2022-09-06T18:01:32.060Z,99.90
2022-09-06T18:03:59.555Z,99.90
2022-09-06T18:06:29.047Z,99.90
2022-09-06T18:08:58.478Z,99.90
2022-09-06T18:11:28.910Z,99.90
2022-09-06T18:13:57.063Z,99.90
2022-09-06T18:16:24.762Z,99.90
2022-09-06T18:18:54.209Z,99.90
2022-09-06T18:21:22.122Z,99.90
2022-09-06T18:23:49.499Z,99.90
2022-09-06T18:26:17.468Z,99.90
2022-09-06T18:28:44.501Z,99.90
2022-09-06T18:31:14.360Z,99.90
2022-09-06T18:33:42.566Z,99.90
2022-09-06T18:36:11.352Z,99.90
2022-09-06T18:38:40.136Z,99.90
2022-09-06T18:41:10.202Z,99.90
2022-09-06T18:43:39.846Z,99.90
2022-09-06T18:46:09.530Z,99.90
2022-09-06T18:48:37.596Z,99.90
2022-09-06T18:51:12.957Z,99.90
2022-09-06T18:53:44.751Z,99.90
2022-09-06T18:56:13.994Z,99.90
2022-09-06T18:58:42.783Z,99.90
2022-09-06T19:01:13.115Z,99.90
2022-09-06T19:03:40.499Z,99.90
2022-09-06T19:06:19.022Z,99.90
2022-09-06T19:08:46.960Z,99.90
2022-09-06T19:11:17.110Z,99.90
2022-09-06T19:13:45.736Z,99.90
2022-09-06T19:16:13.986Z,99.90
2022-09-06T19:18:41.916Z,99.90
2022-09-06T19:21:12.834Z,99.90
2022-09-06T19:23:42.109Z,99.90
2022-09-06T19:26:14.546Z,99.90
2022-09-06T19:28:41.526Z,99.90
2022-09-06T19:31:13.383Z,99.90
2022-09-06T19:33:41.832Z,99.90
2022-09-06T19:36:11.931Z,99.90
2022-09-06T19:39:01.585Z,99.90
2022-09-06T19:41:27.888Z,99.90
2022-09-06T19:43:56.520Z,99.90
2022-09-06T19:46:24.424Z,99.90
2022-09-06T19:48:53.643Z,99.90
2022-09-06T19:51:20.927Z,99.90
2022-09-06T19:53:50.032Z,99.90
2022-09-06T19:56:19.598Z,99.90
2022-09-06T19:58:46.484Z,99.90
2022-09-06T20:01:17.970Z,99.90
2022-09-06T20:03:45.202Z,99.90
2022-09-06T20:06:12.775Z,99.90
2022-09-06T20:08:40.370Z,99.90
2022-09-06T20:11:09.711Z,99.90
2022-09-06T20:13:38.211Z,99.90
2022-09-06T20:16:07.177Z,99.90
2022-09-06T20:18:35.427Z,99.90
2022-09-06T20:21:02.851Z,99.90
2022-09-06T20:23:30.584Z,99.90
2022-09-06T20:26:17.100Z,99.90
2022-09-06T20:28:44.572Z,99.90
2022-09-06T20:31:15.437Z,99.90
2022-09-06T20:33:48.770Z,99.90
2022-09-06T20:36:17.298Z,99.90
2022-09-06T20:38:45.268Z,99.90
2022-09-06T20:41:15.003Z,99.90
2022-09-06T20:43:42.722Z,99.90
2022-09-06T20:46:12.209Z,99.90
2022-09-06T20:48:44.211Z,99.90
2022-09-06T20:51:14.913Z,99.90
2022-09-06T20:53:41.966Z,99.90
2022-09-06T20:56:17.961Z,99.90
2022-09-06T20:58:49.664Z,99.90
2022-09-06T21:01:22.542Z,99.90
2022-09-06T21:03:52.099Z,99.90
2022-09-06T21:06:20.430Z,99.90
2022-09-06T21:08:48.359Z,99.90
2022-09-06T21:11:15.641Z,99.90
2022-09-06T21:13:42.716Z,99.90
2022-09-06T21:16:10.073Z,99.90
2022-09-06T21:18:37.364Z,99.90
2022-09-06T21:21:08.068Z,99.90
2022-09-06T21:23:37.627Z,99.90
2022-09-06T21:26:07.973Z,99.90
2022-09-06T21:28:37.092Z,99.90
2022-09-06T21:31:08.137Z,99.90
2022-09-06T21:33:36.507Z,99.90
2022-09-06T21:36:07.159Z,99.90
2022-09-06T21:38:35.533Z,99.90
2022-09-06T21:41:03.778Z,99.90
2022-09-06T21:43:32.429Z,99.90
2022-09-06T21:46:07.054Z,99.90
2022-09-06T21:48:38.490Z,99.90
2022-09-06T21:51:09.672Z,99.90
2022-09-06T21:53:37.346Z,99.90
2022-09-06T21:56:05.346Z,99.90
2022-09-06T21:58:32.921Z,99.90
2022-09-06T22:01:01.941Z,99.90
2022-09-06T22:03:31.323Z,99.90
2022-09-06T22:05:58.440Z,99.90
2022-09-06T22:08:26.130Z,99.90
2022-09-06T22:10:53.106Z,99.90
2022-09-06T22:13:20.593Z,99.90
2022-09-06T22:15:47.703Z,99.90
2022-09-06T22:18:14.587Z,99.90
2022-09-06T22:20:41.449Z,99.90
2022-09-06T22:23:09.916Z,99.90
2022-09-06T22:25:36.842Z,99.90
2022-09-06T22:28:03.700Z,99.90
2022-09-06T22:30:31.064Z,99.90
2022-09-06T22:32:58.190Z,99.90
2022-09-06T22:35:25.066Z,99.90
2022-09-06T22:37:51.946Z,99.90
2022-09-06T22:40:19.045Z,99.90
2022-09-06T22:42:46.217Z,99.90
2022-09-06T22:45:13.112Z,99.90
2022-09-06T22:47:40.009Z,99.90
2022-09-06T22:50:07.647Z,99.90
2022-09-06T22:52:34.492Z,99.90
2022-09-06T22:55:01.449Z,99.90
2022-09-06T22:57:28.405Z,99.90
2022-09-06T22:59:55.305Z,99.90
2022-09-06T23:02:22.171Z,99.90
2022-09-06T23:04:51.481Z,99.90
2022-09-06T23:07:18.344Z,99.90
2022-09-06T23:09:45.210Z,99.90
2022-09-06T23:12:12.372Z,99.90
2022-09-06T23:14:39.310Z,99.90
2022-09-06T23:17:06.411Z,99.90
2022-09-06T23:19:33.253Z,99.90
2022-09-06T23:22:00.235Z,99.90
2022-09-06T23:24:27.258Z,99.90
2022-09-06T23:26:54.569Z,99.90
2022-09-06T23:29:21.479Z,99.90
2022-09-06T23:31:48.555Z,99.90
2022-09-06T23:34:15.912Z,99.90
2022-09-06T23:36:42.868Z,99.90
2022-09-06T23:39:09.777Z,99.90
2022-09-06T23:41:36.619Z,99.90
2022-09-06T23:44:03.604Z,99.90
2022-09-06T23:46:31.249Z,99.90
2022-09-06T23:48:58.358Z,99.90
2022-09-06T23:51:25.251Z,99.90
2022-09-06T23:53:52.611Z,99.90
2022-09-06T23:56:20.791Z,99.90
2022-09-06T23:58:47.683Z,99.90
